Latest Weather Observations for Thursday Island

IDQ60801

Issued at 10:31 pm EST Monday 20 May 2019 (issued every 10 minutes, with the page automatically refreshed every 10 minutes)

About weather observations | Map of weather stations | Latest weather observations for QLD | Other Formats
Station Details ID: 200892 Name: TORRES STRAIT NTC AWS Lat: -10.59 Lon: 142.22 Height: 3.0 m
Data from the previous 72 hours. | See also: Recent months for locations in Queensland
Date/Time
EST
Temp
°C
App
Temp
°C
Dew
Point
°C
Rel
Hum
%
Delta-T
°C
Wind Press
QNH
hPa
Press
MSL
hPa
Rain since
9am
mm
Dir  Spd
km/h
Gust
km/h
Spd
kts
Gust
kts
20/10:30pm 26.2 - - - - SE 24 33 13 18 1013.7 1013.7 -
20/10:00pm 26.2 - - - - SE 24 37 13 20 1013.6 1013.6 -
20/09:30pm 26.3 - - - - SE 24 35 13 19 1013.7 1013.7 -
20/09:00pm 26.5 - - - - SE 22 32 12 17 1013.8 1013.8 -
20/08:30pm 26.4 - - - - SE 28 37 15 20 1013.7 1013.7 -
20/08:00pm 26.5 - - - - SE 28 35 15 19 1013.4 1013.4 -
20/07:30pm 26.7 - - - - SE 28 37 15 20 1013.2 1013.2 -
20/07:00pm 26.7 - - - - SE 30 39 16 21 1012.8 1012.8 -
20/06:30pm 26.9 - - - - SE 28 37 15 20 1012.6 1012.6 -
20/06:00pm 26.9 - - - - ESE 26 39 14 21 1012.3 1012.3 -
20/05:30pm 27.1 - - - - ESE 28 37 15 20 1012.2 1012.2 -
20/05:00pm 27.5 - - - - ESE 35 46 19 25 1012.1 1012.1 -
20/04:30pm 27.4 - - - - ESE 32 41 17 22 1011.8 1011.8 -
20/04:00pm 27.6 - - - - ESE 30 43 16 23 1011.6 1011.6 -
20/03:30pm 27.8 - - - - ESE 35 46 19 25 1011.5 1011.5 -
20/03:00pm 27.9 - - - - ESE 35 43 19 23 1011.5 1011.5 -
20/02:30pm 27.9 - - - - ESE 35 44 19 24 1011.7 1011.7 -
20/02:00pm 28.0 - - - - ESE 35 44 19 24 1011.8 1011.8 -
20/01:30pm 27.9 - - - - ESE 37 48 20 26 1012.3 1012.3 -
20/01:00pm 27.7 - - - - ESE 39 50 21 27 1012.7 1012.7 -
20/12:30pm 27.9 - - - - ESE 37 52 20 28 1012.9 1012.9 -
20/12:00pm 27.7 - - - - ESE 37 46 20 25 1013.2 1013.2 -
20/11:30am 27.6 - - - - ESE 41 52 22 28 1013.2 1013.2 -
20/11:00am 27.6 - - - - ESE 39 52 21 28 1013.3 1013.3 -
20/10:30am 27.7 - - - - ESE 39 52 21 28 1013.4 1013.4 -
20/10:00am 27.5 - - - - ESE 33 46 18 25 1013.5 1013.5 -
20/09:30am 27.4 - - - - ESE 35 46 19 25 1013.5 1013.5 -
20/09:00am 27.2 - - - - ESE 32 41 17 22 1013.2 1013.2 -
20/08:30am 26.9 - - - - SE 28 39 15 21 1013.3 1013.3 -
20/08:00am 26.6 - - - - SE 22 32 12 17 1013.2 1013.2 -
20/07:30am 26.4 - - - - SE 17 20 9 11 1013.0 1013.0 -
20/07:00am 26.4 - - - - SE 19 24 10 13 1012.7 1012.7 -
20/06:30am 26.3 - - - - ESE 26 37 14 20 1012.2 1012.2 -
20/06:00am 26.2 - - - - SE 22 28 12 15 1012.2 1012.2 -
20/05:30am 26.3 - - - - SE 20 24 11 13 1012.1 1012.1 -
20/05:00am 26.6 - - - - ESE 26 35 14 19 1011.8 1011.8 -
20/04:30am 26.5 - - - - ESE 28 35 15 19 1011.9 1011.9 -
20/04:00am 26.5 - - - - ESE 24 30 13 16 1011.7 1011.7 -
20/03:30am 26.3 - - - - ESE 20 24 11 13 1011.8 1011.8 -
20/03:00am 26.1 - - - - ESE 20 28 11 15 1011.9 1011.9 -
20/02:30am 26.5 - - - - ESE 20 32 11 17 1012.0 1012.0 -
20/02:00am 26.6 - - - - ESE 22 32 12 17 1012.2 1012.2 -
20/01:30am 26.6 - - - - SE 22 30 12 16 1012.1 1012.1 -
20/01:00am 26.7 - - - - SE 26 32 14 17 1012.3 1012.3 -
20/12:30am 26.7 - - - - SE 22 28 12 15 1012.7 1012.7 -
20/12:00am 26.7 - - - - SE 22 30 12 16 1013.0 1013.0 -
 
Date/Time
EST
Temp
°C
App
Temp
°C
Dew
Point
°C
Rel
Hum
%
Delta-T
°C
Wind Press
QNH
hPa
Press
MSL
hPa
Rain since
9am
mm
Dir  Spd
km/h
Gust
km/h
Spd
kts
Gust
kts
19/11:30pm 26.7 - - - - ESE 22 32 12 17 1013.2 1013.2 -
19/11:00pm 26.6 - - - - ESE 20 26 11 14 1013.3 1013.3 -
19/10:30pm 26.3 - - - - ESE 17 20 9 11 1013.3 1013.3 -
19/10:00pm 26.1 - - - - SE 17 20 9 11 1013.1 1013.1 -
19/09:30pm 25.7 - - - - ESE 19 24 10 13 1012.8 1012.8 -
19/09:00pm 26.5 - - - - SE 20 26 11 14 1012.8 1012.8 -
19/08:30pm 26.8 - - - - SE 22 30 12 16 1012.4 1012.4 -
19/08:00pm 27.0 - - - - SE 24 32 13 17 1012.1 1012.1 -
19/07:30pm 27.0 - - - - SE 24 30 13 16 1011.9 1011.9 -
19/07:00pm 27.1 - - - - SE 19 24 10 13 1011.6 1011.6 -
19/06:30pm 27.1 - - - - SE 24 33 13 18 1011.4 1011.4 -
19/06:00pm 27.3 - - - - SE 26 33 14 18 1011.1 1011.1 -
19/05:30pm 27.4 - - - - SE 24 32 13 17 1010.9 1010.9 -
19/05:00pm 27.6 - - - - ESE 32 43 17 23 1010.7 1010.7 -
19/04:30pm 27.6 - - - - ESE 32 39 17 21 1010.3 1010.3 -
19/04:00pm 27.6 - - - - ESE 32 43 17 23 1010.1 1010.1 -
19/03:30pm 27.7 - - - - SE 39 52 21 28 1010.1 1010.1 -
19/03:00pm 27.7 - - - - ESE 33 44 18 24 1010.2 1010.2 -
19/02:30pm 27.8 - - - - ESE 35 54 19 29 1010.5 1010.5 -
19/02:29pm 27.7 - - - - ESE 33 54 18 29 1010.5 1010.5 -
19/02:00pm 27.8 - - - - ESE 35 46 19 25 1010.6 1010.6 -
19/01:30pm 27.7 - - - - SE 37 50 20 27 1011.0 1011.0 -
19/01:00pm 27.6 - - - - ESE 41 50 22 27 1011.5 1011.5 -
19/12:30pm 27.5 - - - - ESE 37 52 20 28 1011.8 1011.8 -
19/12:00pm 27.6 - - - - ESE 39 52 21 28 1012.0 1012.0 -
19/11:30am 27.8 - - - - ESE 39 54 21 29 1011.8 1011.8 -
19/11:00am 27.4 - - - - ESE 33 46 18 25 1012.1 1012.1 -
19/10:30am 27.4 - - - - ESE 37 50 20 27 1012.4 1012.4 -
19/10:00am 27.4 - - - - ESE 35 46 19 25 1012.3 1012.3 -
19/09:30am 27.4 - - - - ESE 35 46 19 25 1012.2 1012.2 -
19/09:00am 27.3 - - - - SE 32 41 17 22 1011.9 1011.9 -
19/08:30am 27.1 - - - - SE 32 41 17 22 1011.8 1011.8 -
19/08:00am 26.9 - - - - ESE 26 39 14 21 1011.5 1011.5 -
19/07:30am 26.7 - - - - ESE 26 32 14 17 1011.5 1011.5 -
19/07:00am 26.7 - - - - ESE 30 37 16 20 1011.2 1011.2 -
19/06:30am 26.6 - - - - ESE 28 35 15 19 1011.1 1011.1 -
19/06:00am 26.4 - - - - ESE 24 32 13 17 1011.1 1011.1 -
19/05:30am 26.5 - - - - ESE 26 33 14 18 1010.9 1010.9 -
19/05:00am 26.6 - - - - ESE 26 37 14 20 1010.6 1010.6 -
19/04:30am 26.6 - - - - SE 28 37 15 20 1010.6 1010.6 -
19/04:00am 26.6 - - - - SE 28 37 15 20 1010.4 1010.4 -
19/03:30am 26.6 - - - - SE 30 43 16 23 1010.2 1010.2 -
19/03:00am 26.7 - - - - SE 32 46 17 25 1010.3 1010.3 -
19/02:30am 26.7 - - - - SE 32 43 17 23 1010.4 1010.4 -
19/02:00am 26.9 - - - - SE 37 46 20 25 1010.7 1010.7 -
19/01:30am 26.9 - - - - SE 32 43 17 23 1011.1 1011.1 -
19/01:00am 26.8 - - - - SE 30 39 16 21 1011.3 1011.3 -
19/12:30am 26.8 - - - - SE 28 37 15 20 1011.7 1011.7 -
19/12:00am 26.8 - - - - SE 28 35 15 19 1011.8 1011.8 -
 
Date/Time
EST
Temp
°C
App
Temp
°C
Dew
Point
°C
Rel
Hum
%
Delta-T
°C
Wind Press
QNH
hPa
Press
MSL
hPa
Rain since
9am
mm
Dir  Spd
km/h
Gust
km/h
Spd
kts
Gust
kts
18/11:30pm 26.8 - - - - SE 30 37 16 20 1012.2 1012.2 -
18/11:00pm 26.5 - - - - SE 26 35 14 19 1012.4 1012.4 -
18/10:30pm 26.5 - - - - SE 26 35 14 19 1012.5 1012.5 -
18/10:00pm 26.3 - - - - SE 26 33 14 18 1012.6 1012.6 -
18/09:30pm 25.9 - - - - SE 24 32 13 17 1012.5 1012.5 -
18/09:00pm 25.3 - - - - SE 24 30 13 16 1012.4 1012.4 -
18/08:30pm 26.8 - - - - SE 30 41 16 22 1012.4 1012.4 -
18/08:00pm 26.9 - - - - SE 30 37 16 20 1012.0 1012.0 -
18/07:30pm 26.9 - - - - SE 24 32 13 17 1011.7 1011.7 -
18/07:00pm 27.0 - - - - SE 26 33 14 18 1011.3 1011.3 -
18/06:30pm 27.2 - - - - SE 30 41 16 22 1011.0 1011.0 -
18/06:00pm 27.3 - - - - SE 26 37 14 20 1010.5 1010.5 -
18/05:30pm 27.1 - - - - SE 37 50 20 27 1010.3 1010.3 -
18/05:00pm 27.6 - - - - SE 33 43 18 23 1009.8 1009.8 -
18/04:30pm 28.0 - - - - SE 35 44 19 24 1009.4 1009.4 -
18/04:00pm 27.7 - - - - ESE 37 56 20 30 1009.2 1009.2 -
18/03:55pm 27.7 - - - - ESE 37 56 20 30 1009.2 1009.2 -
18/03:30pm 27.1 - - - - SE 32 44 17 24 1009.3 1009.3 -
18/03:24pm 26.9 - - - - ESE 33 54 18 29 1009.3 1009.3 -
18/03:00pm 27.4 - - - - ESE 37 54 20 29 1009.2 1009.2 -
18/02:30pm 28.1 - - - - ESE 44 56 24 30 1009.4 1009.4 -
18/02:00pm 28.1 - - - - ESE 43 54 23 29 1009.6 1009.6 -
18/01:30pm 27.9 - - - - ESE 41 54 22 29 1009.9 1009.9 -
18/01:00pm 27.7 - - - - ESE 43 57 23 31 1010.4 1010.4 -
18/12:30pm 27.5 - - - - ESE 43 56 23 30 1010.7 1010.7 -
18/12:00pm 27.3 - - - - ESE 41 56 22 30 1011.3 1011.3 -
18/11:51am 27.3 - - - - ESE 35 56 19 30 1011.4 1011.4 -
18/11:30am 27.0 - - - - ESE 43 56 23 30 1011.8 1011.8 -
18/11:00am 27.0 - - - - ESE 39 56 21 30 1012.4 1012.4 -
18/10:30am 26.6 - - - - ESE 33 50 18 27 1012.8 1012.8 -
18/10:09am 26.2 - - - - ESE 30 50 16 27 1012.8 1012.8 -
18/10:00am 25.9 - - - - ESE 30 39 16 21 1012.7 1012.7 -
18/09:30am 26.9 - - - - SE 30 43 16 23 1012.7 1012.7 -
18/09:00am 26.3 - - - - SE 26 35 14 19 1012.5 1012.5 -
18/08:30am 26.1 - - - - SE 22 30 12 16 1012.1 1012.1 -
18/08:00am 25.7 - - - - SE 28 39 15 21 1011.8 1011.8 -
18/07:30am 25.8 - - - - SE 28 35 15 19 1011.4 1011.4 -
18/07:00am 25.4 - - - - SE 32 44 17 24 1011.3 1011.3 -
18/06:30am 25.7 - - - - SE 32 44 17 24 1011.0 1011.0 -
18/06:00am 25.8 - - - - SE 28 37 15 20 1010.6 1010.6 -
18/05:30am 25.4 - - - - SE 30 39 16 21 1010.5 1010.5 -
18/05:00am 25.8 - - - - SE 28 35 15 19 1010.2 1010.2 -
18/04:30am 25.4 - - - - SE 26 32 14 17 1010.3 1010.3 -
18/04:00am 25.5 - - - - SE 26 35 14 19 1010.3 1010.3 -
18/03:30am 25.5 - - - - SE 22 33 12 18 1010.3 1010.3 -
18/03:00am 25.6 - - - - ESE 28 52 15 28 1010.6 1010.6 -
18/02:58am 25.4 - - - - ESE 28 52 15 28 1010.6 1010.6 -
18/02:30am 25.7 - - - - SE 20 24 11 13 1010.6 1010.6 -
18/02:00am 26.2 - - - - SE 24 30 13 16 1010.7 1010.7 -
18/01:30am 26.0 - - - - SE 22 32 12 17 1011.1 1011.1 -
18/01:00am 25.7 - - - - SE 26 39 14 21 1011.3 1011.3 -
18/12:30am 26.0 - - - - SE 26 35 14 19 1011.3 1011.3 -
18/12:00am 25.9 - - - - SE 22 30 12 16 1011.5 1011.5 -
 
Date/Time
EST
Temp
°C
App
Temp
°C
Dew
Point
°C
Rel
Hum
%
Delta-T
°C
Wind Press
QNH
hPa
Press
MSL
hPa
Rain since
9am
mm
Dir  Spd
km/h
Gust
km/h
Spd
kts
Gust
kts
17/11:30pm 25.7 - - - - SE 28 39 15 21 1011.8 1011.8 -
17/11:00pm 26.8 - - - - SE 28 35 15 19 1011.8 1011.8 -

Other formats

Comma delimited format used in spreadsheet applications
http://www.bom.gov.au/fwo/IDQ60801/IDQ60801.94181.axf

JavaScript Object Notation format (JSON) in row-major order
http://www.bom.gov.au/fwo/IDQ60801/IDQ60801.94181.json

Data quality

Most of these data are generated automatically and are frequently updated. Quality checks on data are not normally performed. It is possible for incorrect values to appear. Refer to information at About Latest Weather Observations and please check the disclaimer before using these data.